sensor_id;sensor_type;location;lat;lon;timestamp;P1;durP1;ratioP1;P2;durP2;ratioP2
28086;SDS011;15392;48.912;8.380;2024-03-23T00:55:49;1.00;;;1.00;;
28086;SDS011;15392;48.912;8.380;2024-03-23T00:58:35;0.95;;;0.95;;
28086;SDS011;15392;48.912;8.380;2024-03-23T01:01:21;0.95;;;0.95;;
28086;SDS011;15392;48.912;8.380;2024-03-23T01:04:07;1.02;;;1.02;;
28086;SDS011;15392;48.912;8.380;2024-03-23T01:06:53;0.90;;;0.90;;
28086;SDS011;15392;48.912;8.380;2024-03-23T01:09:40;0.73;;;0.73;;
28086;SDS011;15392;48.912;8.380;2024-03-23T01:12:26;1.00;;;1.00;;
28086;SDS011;15392;48.912;8.380;2024-03-23T01:15:12;0.73;;;0.73;;
28086;SDS011;15392;48.912;8.380;2024-03-23T01:17:58;0.75;;;0.75;;
28086;SDS011;15392;48.912;8.380;2024-03-23T01:20:44;0.70;;;0.70;;
28086;SDS011;15392;48.912;8.380;2024-03-23T01:23:30;0.75;;;0.75;;
28086;SDS011;15392;48.912;8.380;2024-03-23T01:26:16;0.63;;;0.63;;
28086;SDS011;15392;48.912;8.380;2024-03-23T01:29:02;0.80;;;0.80;;
28086;SDS011;15392;48.912;8.380;2024-03-23T01:31:48;0.75;;;0.75;;
28086;SDS011;15392;48.912;8.380;2024-03-23T01:34:34;0.60;;;0.60;;
28086;SDS011;15392;48.912;8.380;2024-03-23T01:37:20;0.73;;;0.73;;
28086;SDS011;15392;48.912;8.380;2024-03-23T01:40:06;0.77;;;0.77;;
28086;SDS011;15392;48.912;8.380;2024-03-23T01:42:56;0.70;;;0.70;;
28086;SDS011;15392;48.912;8.380;2024-03-23T01:45:53;0.82;;;0.82;;
28086;SDS011;15392;48.912;8.380;2024-03-23T01:48:39;0.60;;;0.60;;
28086;SDS011;15392;48.912;8.380;2024-03-23T01:51:26;0.82;;;0.82;;
28086;SDS011;15392;48.912;8.380;2024-03-23T01:54:12;0.57;;;0.57;;
28086;SDS011;15392;48.912;8.380;2024-03-23T01:56:59;0.80;;;0.80;;
28086;SDS011;15392;48.912;8.380;2024-03-23T01:59:45;0.70;;;0.70;;
28086;SDS011;15392;48.912;8.380;2024-03-23T02:02:31;0.80;;;0.80;;
28086;SDS011;15392;48.912;8.380;2024-03-23T02:05:17;0.70;;;0.70;;
28086;SDS011;15392;48.912;8.380;2024-03-23T02:08:03;0.77;;;0.77;;
28086;SDS011;15392;48.912;8.380;2024-03-23T02:10:50;1.38;;;0.80;;
28086;SDS011;15392;48.912;8.380;2024-03-23T02:13:36;0.73;;;0.73;;
28086;SDS011;15392;48.912;8.380;2024-03-23T02:16:22;0.70;;;0.70;;
28086;SDS011;15392;48.912;8.380;2024-03-23T02:19:08;0.80;;;0.73;;
28086;SDS011;15392;48.912;8.380;2024-03-23T02:21:54;0.80;;;0.73;;
28086;SDS011;15392;48.912;8.380;2024-03-23T02:24:40;0.65;;;0.65;;
28086;SDS011;15392;48.912;8.380;2024-03-23T02:27:26;0.70;;;0.70;;
28086;SDS011;15392;48.912;8.380;2024-03-23T02:30:12;0.80;;;0.80;;
28086;SDS011;15392;48.912;8.380;2024-03-23T02:32:58;0.80;;;0.80;;
28086;SDS011;15392;48.912;8.380;2024-03-23T02:35:45;0.70;;;0.70;;
28086;SDS011;15392;48.912;8.380;2024-03-23T02:38:31;0.80;;;0.80;;
28086;SDS011;15392;48.912;8.380;2024-03-23T02:41:17;0.70;;;0.70;;
28086;SDS011;15392;48.912;8.380;2024-03-23T02:44:08;0.80;;;0.80;;
28086;SDS011;15392;48.912;8.380;2024-03-23T02:46:57;0.60;;;0.60;;
28086;SDS011;15392;48.912;8.380;2024-03-23T02:49:43;0.50;;;0.50;;
28086;SDS011;15392;48.912;8.380;2024-03-23T02:52:29;1.08;;;0.80;;
28086;SDS011;15392;48.912;8.380;2024-03-23T02:55:15;0.70;;;0.70;;
28086;SDS011;15392;48.912;8.380;2024-03-23T02:58:01;0.55;;;0.55;;
28086;SDS011;15392;48.912;8.380;2024-03-23T03:00:47;0.77;;;0.75;;
28086;SDS011;15392;48.912;8.380;2024-03-23T03:03:33;0.60;;;0.60;;
28086;SDS011;15392;48.912;8.380;2024-03-23T03:06:23;0.80;;;0.80;;
28086;SDS011;15392;48.912;8.380;2024-03-23T03:09:10;0.70;;;0.70;;
28086;SDS011;15392;48.912;8.380;2024-03-23T03:11:56;0.70;;;0.70;;
28086;SDS011;15392;48.912;8.380;2024-03-23T03:14:42;0.80;;;0.80;;
28086;SDS011;15392;48.912;8.380;2024-03-23T03:17:28;0.90;;;0.90;;
28086;SDS011;15392;48.912;8.380;2024-03-23T03:20:14;0.90;;;0.90;;
28086;SDS011;15392;48.912;8.380;2024-03-23T03:23:01;0.90;;;0.90;;
28086;SDS011;15392;48.912;8.380;2024-03-23T03:25:47;0.90;;;0.90;;
28086;SDS011;15392;48.912;8.380;2024-03-23T03:28:33;0.60;;;0.60;;
28086;SDS011;15392;48.912;8.380;2024-03-23T03:31:20;0.60;;;0.60;;
28086;SDS011;15392;48.912;8.380;2024-03-23T03:34:06;0.70;;;0.70;;
28086;SDS011;15392;48.912;8.380;2024-03-23T03:36:52;0.70;;;0.70;;
28086;SDS011;15392;48.912;8.380;2024-03-23T03:39:38;0.70;;;0.70;;
28086;SDS011;15392;48.912;8.380;2024-03-23T03:42:24;0.73;;;0.73;;
28086;SDS011;15392;48.912;8.380;2024-03-23T03:45:10;0.93;;;0.93;;
28086;SDS011;15392;48.912;8.380;2024-03-23T03:47:56;1.10;;;1.10;;
28086;SDS011;15392;48.912;8.380;2024-03-23T03:50:42;1.00;;;1.00;;
28086;SDS011;15392;48.912;8.380;2024-03-23T03:53:28;1.25;;;1.00;;
28086;SDS011;15392;48.912;8.380;2024-03-23T03:56:14;2.28;;;2.10;;
28086;SDS011;15392;48.912;8.380;2024-03-23T03:59:00;2.10;;;2.00;;
28086;SDS011;15392;48.912;8.380;2024-03-23T04:01:46;2.35;;;2.25;;
28086;SDS011;15392;48.912;8.380;2024-03-23T04:04:32;2.15;;;2.05;;
28086;SDS011;15392;48.912;8.380;2024-03-23T04:07:18;2.00;;;1.90;;
28086;SDS011;15392;48.912;8.380;2024-03-23T04:10:05;2.63;;;2.53;;
28086;SDS011;15392;48.912;8.380;2024-03-23T04:12:53;2.83;;;2.72;;
28086;SDS011;15392;48.912;8.380;2024-03-23T04:15:39;2.70;;;2.60;;
28086;SDS011;15392;48.912;8.380;2024-03-23T04:18:26;2.45;;;2.35;;
28086;SDS011;15392;48.912;8.380;2024-03-23T04:21:12;2.80;;;2.70;;
28086;SDS011;15392;48.912;8.380;2024-03-23T04:23:58;3.28;;;3.08;;
28086;SDS011;15392;48.912;8.380;2024-03-23T04:26:44;2.88;;;2.78;;
28086;SDS011;15392;48.912;8.380;2024-03-23T04:29:31;2.70;;;2.60;;
28086;SDS011;15392;48.912;8.380;2024-03-23T04:32:17;2.78;;;2.67;;
28086;SDS011;15392;48.912;8.380;2024-03-23T04:35:04;2.85;;;2.75;;
28086;SDS011;15392;48.912;8.380;2024-03-23T04:37:56;3.03;;;2.92;;
28086;SDS011;15392;48.912;8.380;2024-03-23T04:40:44;2.38;;;2.28;;
28086;SDS011;15392;48.912;8.380;2024-03-23T04:43:30;2.45;;;2.35;;
28086;SDS011;15392;48.912;8.380;2024-03-23T04:46:16;2.63;;;2.53;;
28086;SDS011;15392;48.912;8.380;2024-03-23T04:49:02;3.45;;;3.08;;
28086;SDS011;15392;48.912;8.380;2024-03-23T04:51:49;2.90;;;2.80;;
28086;SDS011;15392;48.912;8.380;2024-03-23T04:54:35;2.45;;;2.35;;
28086;SDS011;15392;48.912;8.380;2024-03-23T04:57:21;2.40;;;2.30;;
28086;SDS011;15392;48.912;8.380;2024-03-23T05:00:08;1.92;;;1.88;;
28086;SDS011;15392;48.912;8.380;2024-03-23T05:03:02;1.98;;;1.88;;
28086;SDS011;15392;48.912;8.380;2024-03-23T05:05:49;2.00;;;1.90;;
28086;SDS011;15392;48.912;8.380;2024-03-23T05:08:35;2.15;;;2.05;;
28086;SDS011;15392;48.912;8.380;2024-03-23T05:11:21;1.98;;;1.88;;
28086;SDS011;15392;48.912;8.380;2024-03-23T05:14:08;1.63;;;1.52;;
28086;SDS011;15392;48.912;8.380;2024-03-23T05:16:54;2.10;;;2.00;;
28086;SDS011;15392;48.912;8.380;2024-03-23T05:19:41;1.38;;;1.38;;
28086;SDS011;15392;48.912;8.380;2024-03-23T05:22:27;1.00;;;1.00;;
28086;SDS011;15392;48.912;8.380;2024-03-23T05:25:13;0.85;;;0.85;;
28086;SDS011;15392;48.912;8.380;2024-03-23T05:27:59;0.90;;;0.90;;
28086;SDS011;15392;48.912;8.380;2024-03-23T05:30:51;0.60;;;0.60;;
28086;SDS011;15392;48.912;8.380;2024-03-23T05:33:38;0.50;;;0.50;;
28086;SDS011;15392;48.912;8.380;2024-03-23T05:36:24;0.30;;;0.30;;
28086;SDS011;15392;48.912;8.380;2024-03-23T05:39:10;0.20;;;0.20;;
28086;SDS011;15392;48.912;8.380;2024-03-23T05:41:57;0.10;;;0.10;;
28086;SDS011;15392;48.912;8.380;2024-03-23T05:44:43;0.10;;;0.10;;
28086;SDS011;15392;48.912;8.380;2024-03-23T05:47:32;0.20;;;0.20;;
28086;SDS011;15392;48.912;8.380;2024-03-23T05:50:18;0.10;;;0.10;;
28086;SDS011;15392;48.912;8.380;2024-03-23T05:53:04;0.10;;;0.10;;
28086;SDS011;15392;48.912;8.380;2024-03-23T05:55:51;0.10;;;0.10;;
28086;SDS011;15392;48.912;8.380;2024-03-23T05:58:45;0.20;;;0.20;;
28086;SDS011;15392;48.912;8.380;2024-03-23T06:01:32;0.08;;;0.08;;
28086;SDS011;15392;48.912;8.380;2024-03-23T06:04:18;0.10;;;0.10;;
28086;SDS011;15392;48.912;8.380;2024-03-23T06:07:04;0.10;;;0.10;;
28086;SDS011;15392;48.912;8.380;2024-03-23T06:09:59;0.10;;;0.10;;
28086;SDS011;15392;48.912;8.380;2024-03-23T06:12:48;0.10;;;0.10;;
28086;SDS011;15392;48.912;8.380;2024-03-23T06:15:35;0.20;;;0.20;;
28086;SDS011;15392;48.912;8.380;2024-03-23T06:18:23;0.10;;;0.10;;
28086;SDS011;15392;48.912;8.380;2024-03-23T06:21:13;0.10;;;0.10;;
28086;SDS011;15392;48.912;8.380;2024-03-23T06:23:59;0.20;;;0.20;;
28086;SDS011;15392;48.912;8.380;2024-03-23T06:26:45;0.10;;;0.10;;
28086;SDS011;15392;48.912;8.380;2024-03-23T06:29:31;0.10;;;0.10;;
28086;SDS011;15392;48.912;8.380;2024-03-23T06:32:18;0.10;;;0.10;;
28086;SDS011;15392;48.912;8.380;2024-03-23T06:35:04;0.10;;;0.10;;
28086;SDS011;15392;48.912;8.380;2024-03-23T06:37:53;0.10;;;0.10;;
28086;SDS011;15392;48.912;8.380;2024-03-23T06:40:39;0.10;;;0.10;;
28086;SDS011;15392;48.912;8.380;2024-03-23T06:43:25;0.43;;;0.10;;
28086;SDS011;15392;48.912;8.380;2024-03-23T06:46:11;0.20;;;0.20;;
28086;SDS011;15392;48.912;8.380;2024-03-23T06:48:57;0.10;;;0.10;;
28086;SDS011;15392;48.912;8.380;2024-03-23T06:51:44;0.00;;;0.00;;
28086;SDS011;15392;48.912;8.380;2024-03-23T06:54:31;0.10;;;0.10;;
28086;SDS011;15392;48.912;8.380;2024-03-23T06:57:17;0.00;;;0.00;;
28086;SDS011;15392;48.912;8.380;2024-03-23T07:00:03;0.10;;;0.00;;
28086;SDS011;15392;48.912;8.380;2024-03-23T07:02:50;0.10;;;0.10;;
28086;SDS011;15392;48.912;8.380;2024-03-23T07:05:37;0.00;;;0.00;;
28086;SDS011;15392;48.912;8.380;2024-03-23T07:08:23;0.00;;;0.00;;
28086;SDS011;15392;48.912;8.380;2024-03-23T07:11:08;0.00;;;0.00;;
28086;SDS011;15392;48.912;8.380;2024-03-23T07:13:54;0.00;;;0.00;;
28086;SDS011;15392;48.912;8.380;2024-03-23T07:16:41;0.00;;;0.00;;
28086;SDS011;15392;48.912;8.380;2024-03-23T07:19:27;0.00;;;0.00;;
28086;SDS011;15392;48.912;8.380;2024-03-23T07:22:13;0.10;;;0.10;;
28086;SDS011;15392;48.912;8.380;2024-03-23T07:25:00;0.10;;;0.10;;
28086;SDS011;15392;48.912;8.380;2024-03-23T07:27:47;0.10;;;0.10;;
28086;SDS011;15392;48.912;8.380;2024-03-23T07:30:33;0.00;;;0.00;;
28086;SDS011;15392;48.912;8.380;2024-03-23T07:33:19;0.15;;;0.05;;
28086;SDS011;15392;48.912;8.380;2024-03-23T07:36:05;0.00;;;0.00;;
28086;SDS011;15392;48.912;8.380;2024-03-23T07:38:51;0.03;;;0.03;;
28086;SDS011;15392;48.912;8.380;2024-03-23T07:41:38;0.00;;;0.00;;
28086;SDS011;15392;48.912;8.380;2024-03-23T07:44:24;0.10;;;0.10;;
28086;SDS011;15392;48.912;8.380;2024-03-23T07:47:10;0.10;;;0.10;;
28086;SDS011;15392;48.912;8.380;2024-03-23T07:49:57;0.00;;;0.00;;
28086;SDS011;15392;48.912;8.380;2024-03-23T07:52:44;0.10;;;0.10;;
28086;SDS011;15392;48.912;8.380;2024-03-23T07:55:30;0.10;;;0.10;;
28086;SDS011;15392;48.912;8.380;2024-03-23T07:58:16;0.10;;;0.10;;
28086;SDS011;15392;48.912;8.380;2024-03-23T08:01:11;0.17;;;0.17;;
28086;SDS011;15392;48.912;8.380;2024-03-23T08:03:59;0.20;;;0.20;;
28086;SDS011;15392;48.912;8.380;2024-03-23T08:06:46;0.25;;;0.25;;
28086;SDS011;15392;48.912;8.380;2024-03-23T08:09:32;0.30;;;0.30;;
28086;SDS011;15392;48.912;8.380;2024-03-23T08:12:18;0.35;;;0.28;;
28086;SDS011;15392;48.912;8.380;2024-03-23T08:15:04;0.40;;;0.40;;
28086;SDS011;15392;48.912;8.380;2024-03-23T08:17:51;0.70;;;0.30;;
28086;SDS011;15392;48.912;8.380;2024-03-23T08:20:37;0.40;;;0.30;;
28086;SDS011;15392;48.912;8.380;2024-03-23T08:23:33;0.50;;;0.50;;
28086;SDS011;15392;48.912;8.380;2024-03-23T08:26:23;0.40;;;0.40;;
28086;SDS011;15392;48.912;8.380;2024-03-23T08:29:09;0.40;;;0.40;;
28086;SDS011;15392;48.912;8.380;2024-03-23T08:31:55;0.50;;;0.50;;
28086;SDS011;15392;48.912;8.380;2024-03-23T08:34:41;0.70;;;0.60;;
28086;SDS011;15392;48.912;8.380;2024-03-23T08:37:27;0.80;;;0.80;;
28086;SDS011;15392;48.912;8.380;2024-03-23T08:40:13;0.70;;;0.68;;
28086;SDS011;15392;48.912;8.380;2024-03-23T08:42:59;0.70;;;0.70;;
28086;SDS011;15392;48.912;8.380;2024-03-23T08:45:45;0.70;;;0.70;;
28086;SDS011;15392;48.912;8.380;2024-03-23T08:48:31;0.70;;;0.70;;
28086;SDS011;15392;48.912;8.380;2024-03-23T08:51:19;0.73;;;0.73;;
28086;SDS011;15392;48.912;8.380;2024-03-23T08:54:05;0.73;;;0.70;;
28086;SDS011;15392;48.912;8.380;2024-03-23T08:56:51;1.00;;;1.00;;
28086;SDS011;15392;48.912;8.380;2024-03-23T08:59:37;0.80;;;0.80;;
28086;SDS011;15392;48.912;8.380;2024-03-23T09:02:23;0.85;;;0.85;;
28086;SDS011;15392;48.912;8.380;2024-03-23T09:05:09;0.93;;;0.88;;
28086;SDS011;15392;48.912;8.380;2024-03-23T09:07:57;1.00;;;1.00;;
28086;SDS011;15392;48.912;8.380;2024-03-23T09:10:43;1.15;;;1.08;;
28086;SDS011;15392;48.912;8.380;2024-03-23T09:13:29;1.38;;;0.80;;
28086;SDS011;15392;48.912;8.380;2024-03-23T09:16:15;1.05;;;0.88;;
28086;SDS011;15392;48.912;8.380;2024-03-23T09:19:01;0.80;;;0.70;;
28086;SDS011;15392;48.912;8.380;2024-03-23T09:21:49;0.98;;;0.77;;
28086;SDS011;15392;48.912;8.380;2024-03-23T09:24:35;1.10;;;0.82;;
28086;SDS011;15392;48.912;8.380;2024-03-23T09:27:22;0.70;;;0.60;;
28086;SDS011;15392;48.912;8.380;2024-03-23T09:30:08;0.77;;;0.60;;
28086;SDS011;15392;48.912;8.380;2024-03-23T09:32:55;1.00;;;0.82;;
28086;SDS011;15392;48.912;8.380;2024-03-23T09:35:42;0.60;;;0.60;;
28086;SDS011;15392;48.912;8.380;2024-03-23T09:38:30;0.65;;;0.65;;
28086;SDS011;15392;48.912;8.380;2024-03-23T09:41:16;0.60;;;0.57;;
28086;SDS011;15392;48.912;8.380;2024-03-23T09:44:02;1.50;;;1.40;;
28086;SDS011;15392;48.912;8.380;2024-03-23T09:46:48;1.77;;;1.08;;
28086;SDS011;15392;48.912;8.380;2024-03-23T09:49:35;0.95;;;0.82;;
28086;SDS011;15392;48.912;8.380;2024-03-23T09:52:23;1.38;;;0.80;;
28086;SDS011;15392;48.912;8.380;2024-03-23T09:55:09;0.80;;;0.80;;
28086;SDS011;15392;48.912;8.380;2024-03-23T09:57:55;1.23;;;0.80;;
28086;SDS011;15392;48.912;8.380;2024-03-23T10:00:41;0.80;;;0.80;;
28086;SDS011;15392;48.912;8.380;2024-03-23T10:03:28;1.33;;;0.95;;
28086;SDS011;15392;48.912;8.380;2024-03-23T10:06:14;0.77;;;0.77;;
28086;SDS011;15392;48.912;8.380;2024-03-23T10:09:16;1.00;;;1.00;;
28086;SDS011;15392;48.912;8.380;2024-03-23T10:12:10;0.73;;;0.73;;
28086;SDS011;15392;48.912;8.380;2024-03-23T10:14:59;0.80;;;0.80;;
28086;SDS011;15392;48.912;8.380;2024-03-23T10:17:45;1.48;;;0.77;;
28086;SDS011;15392;48.912;8.380;2024-03-23T10:20:31;0.60;;;0.60;;
28086;SDS011;15392;48.912;8.380;2024-03-23T10:23:17;0.50;;;0.50;;
28086;SDS011;15392;48.912;8.380;2024-03-23T10:26:12;0.60;;;0.60;;
28086;SDS011;15392;48.912;8.380;2024-03-23T10:29:01;1.20;;;0.85;;
28086;SDS011;15392;48.912;8.380;2024-03-23T10:31:53;1.67;;;0.90;;
28086;SDS011;15392;48.912;8.380;2024-03-23T10:37:30;0.80;;;0.80;;
28086;SDS011;15392;48.912;8.380;2024-03-23T10:40:17;0.80;;;0.80;;
28086;SDS011;15392;48.912;8.380;2024-03-23T10:43:03;0.60;;;0.60;;
28086;SDS011;15392;48.912;8.380;2024-03-23T10:45:50;0.90;;;0.90;;
28086;SDS011;15392;48.912;8.380;2024-03-23T10:48:36;0.60;;;0.60;;
28086;SDS011;15392;48.912;8.380;2024-03-23T10:51:22;0.50;;;0.50;;
28086;SDS011;15392;48.912;8.380;2024-03-23T10:54:08;0.60;;;0.60;;
28086;SDS011;15392;48.912;8.380;2024-03-23T10:57:12;0.50;;;0.50;;
28086;SDS011;15392;48.912;8.380;2024-03-23T11:00:03;0.52;;;0.50;;
28086;SDS011;15392;48.912;8.380;2024-03-23T11:02:51;0.50;;;0.50;;
28086;SDS011;15392;48.912;8.380;2024-03-23T11:05:46;0.60;;;0.60;;
28086;SDS011;15392;48.912;8.380;2024-03-23T11:08:33;1.08;;;0.60;;
28086;SDS011;15392;48.912;8.380;2024-03-23T11:11:21;1.65;;;0.70;;
28086;SDS011;15392;48.912;8.380;2024-03-23T11:14:13;0.88;;;0.88;;
28086;SDS011;15392;48.912;8.380;2024-03-23T11:17:09;0.73;;;0.65;;
28086;SDS011;15392;48.912;8.380;2024-03-23T11:19:56;0.65;;;0.65;;
28086;SDS011;15392;48.912;8.380;2024-03-23T11:22:44;2.50;;;2.40;;
28086;SDS011;15392;48.912;8.380;2024-03-23T11:25:32;1.33;;;1.33;;
28086;SDS011;15392;48.912;8.380;2024-03-23T11:28:19;1.33;;;1.23;;
28086;SDS011;15392;48.912;8.380;2024-03-23T11:31:09;0.80;;;0.80;;
28086;SDS011;15392;48.912;8.380;2024-03-23T11:34:03;0.65;;;0.60;;
28086;SDS011;15392;48.912;8.380;2024-03-23T11:36:50;0.70;;;0.70;;
28086;SDS011;15392;48.912;8.380;2024-03-23T11:39:50;1.43;;;0.83;;
28086;SDS011;15392;48.912;8.380;2024-03-23T11:42:36;1.08;;;0.80;;
28086;SDS011;15392;48.912;8.380;2024-03-23T11:45:22;0.70;;;0.68;;
28086;SDS011;15392;48.912;8.380;2024-03-23T11:48:08;0.70;;;0.70;;
28086;SDS011;15392;48.912;8.380;2024-03-23T11:50:58;0.60;;;0.52;;
28086;SDS011;15392;48.912;8.380;2024-03-23T11:53:45;0.80;;;0.80;;
28086;SDS011;15392;48.912;8.380;2024-03-23T11:56:31;1.00;;;0.98;;
28086;SDS011;15392;48.912;8.380;2024-03-23T11:59:29;1.33;;;1.00;;
28086;SDS011;15392;48.912;8.380;2024-03-23T12:02:19;1.00;;;0.90;;
28086;SDS011;15392;48.912;8.380;2024-03-23T12:05:15;1.23;;;1.08;;
28086;SDS011;15392;48.912;8.380;2024-03-23T12:11:26;1.10;;;1.00;;
28086;SDS011;15392;48.912;8.380;2024-03-23T12:14:14;1.30;;;1.20;;
28086;SDS011;15392;48.912;8.380;2024-03-23T12:17:13;0.63;;;0.63;;
28086;SDS011;15392;48.912;8.380;2024-03-23T12:20:00;1.65;;;1.55;;
28086;SDS011;15392;48.912;8.380;2024-03-23T12:22:48;1.35;;;1.25;;
28086;SDS011;15392;48.912;8.380;2024-03-23T12:25:35;1.55;;;1.20;;
28086;SDS011;15392;48.912;8.380;2024-03-23T12:28:21;1.13;;;1.02;;
28086;SDS011;15392;48.912;8.380;2024-03-23T12:31:07;0.98;;;0.98;;
28086;SDS011;15392;48.912;8.380;2024-03-23T12:33:53;0.93;;;0.82;;
28086;SDS011;15392;48.912;8.380;2024-03-23T12:36:39;1.58;;;1.38;;
28086;SDS011;15392;48.912;8.380;2024-03-23T12:39:25;1.50;;;1.40;;
28086;SDS011;15392;48.912;8.380;2024-03-23T12:42:12;1.38;;;1.20;;
28086;SDS011;15392;48.912;8.380;2024-03-23T12:44:58;1.15;;;1.02;;
28086;SDS011;15392;48.912;8.380;2024-03-23T12:47:44;2.13;;;1.38;;
28086;SDS011;15392;48.912;8.380;2024-03-23T12:50:30;0.82;;;0.80;;
28086;SDS011;15392;48.912;8.380;2024-03-23T12:53:16;1.10;;;0.82;;
28086;SDS011;15392;48.912;8.380;2024-03-23T12:56:02;0.60;;;0.50;;
28086;SDS011;15392;48.912;8.380;2024-03-23T12:58:48;0.73;;;0.50;;
28086;SDS011;15392;48.912;8.380;2024-03-23T13:01:36;0.50;;;0.30;;
28086;SDS011;15392;48.912;8.380;2024-03-23T13:04:22;0.20;;;0.20;;
28086;SDS011;15392;48.912;8.380;2024-03-23T13:07:08;0.77;;;0.30;;
28086;SDS011;15392;48.912;8.380;2024-03-23T13:09:54;0.17;;;0.17;;
28086;SDS011;15392;48.912;8.380;2024-03-23T13:12:42;0.20;;;0.20;;
28086;SDS011;15392;48.912;8.380;2024-03-23T13:15:28;0.30;;;0.30;;
28086;SDS011;15392;48.912;8.380;2024-03-23T13:18:14;0.30;;;0.30;;
28086;SDS011;15392;48.912;8.380;2024-03-23T13:21:00;2.35;;;0.57;;
28086;SDS011;15392;48.912;8.380;2024-03-23T13:23:46;0.22;;;0.20;;
28086;SDS011;15392;48.912;8.380;2024-03-23T13:26:33;0.20;;;0.20;;
28086;SDS011;15392;48.912;8.380;2024-03-23T13:29:20;0.77;;;0.45;;
28086;SDS011;15392;48.912;8.380;2024-03-23T13:32:06;0.30;;;0.30;;
28086;SDS011;15392;48.912;8.380;2024-03-23T13:34:52;0.73;;;0.50;;
28086;SDS011;15392;48.912;8.380;2024-03-23T13:37:38;0.30;;;0.20;;
28086;SDS011;15392;48.912;8.380;2024-03-23T13:40:24;0.43;;;0.30;;
28086;SDS011;15392;48.912;8.380;2024-03-23T13:43:10;0.28;;;0.20;;
28086;SDS011;15392;48.912;8.380;2024-03-23T13:45:57;0.35;;;0.30;;
28086;SDS011;15392;48.912;8.380;2024-03-23T13:48:44;0.10;;;0.10;;
28086;SDS011;15392;48.912;8.380;2024-03-23T13:51:30;0.10;;;0.10;;
28086;SDS011;15392;48.912;8.380;2024-03-23T13:54:16;0.20;;;0.20;;
28086;SDS011;15392;48.912;8.380;2024-03-23T13:57:02;0.22;;;0.20;;
28086;SDS011;15392;48.912;8.380;2024-03-23T13:59:48;0.45;;;0.45;;
28086;SDS011;15392;48.912;8.380;2024-03-23T14:02:34;0.13;;;0.13;;
28086;SDS011;15392;48.912;8.380;2024-03-23T14:05:21;0.10;;;0.10;;
28086;SDS011;15392;48.912;8.380;2024-03-23T14:08:08;0.20;;;0.20;;
28086;SDS011;15392;48.912;8.380;2024-03-23T14:10:55;0.17;;;0.17;;
28086;SDS011;15392;48.912;8.380;2024-03-23T14:13:42;0.50;;;0.38;;
28086;SDS011;15392;48.912;8.380;2024-03-23T14:16:29;0.63;;;0.40;;
28086;SDS011;15392;48.912;8.380;2024-03-23T14:19:16;0.35;;;0.32;;
28086;SDS011;15392;48.912;8.380;2024-03-23T14:22:02;0.20;;;0.20;;
28086;SDS011;15392;48.912;8.380;2024-03-23T14:24:48;0.20;;;0.20;;
28086;SDS011;15392;48.912;8.380;2024-03-23T14:27:34;0.20;;;0.20;;
28086;SDS011;15392;48.912;8.380;2024-03-23T14:30:23;0.20;;;0.20;;
28086;SDS011;15392;48.912;8.380;2024-03-23T14:33:09;0.15;;;0.15;;
28086;SDS011;15392;48.912;8.380;2024-03-23T14:35:55;0.20;;;0.20;;
28086;SDS011;15392;48.912;8.380;2024-03-23T14:38:42;0.10;;;0.10;;
28086;SDS011;15392;48.912;8.380;2024-03-23T14:41:35;0.15;;;0.15;;
28086;SDS011;15392;48.912;8.380;2024-03-23T14:44:21;0.50;;;0.20;;
28086;SDS011;15392;48.912;8.380;2024-03-23T14:47:07;0.10;;;0.10;;
28086;SDS011;15392;48.912;8.380;2024-03-23T14:49:53;0.20;;;0.20;;
28086;SDS011;15392;48.912;8.380;2024-03-23T14:52:39;0.10;;;0.10;;
28086;SDS011;15392;48.912;8.380;2024-03-23T14:55:25;0.20;;;0.20;;
28086;SDS011;15392;48.912;8.380;2024-03-23T14:58:11;0.30;;;0.30;;
28086;SDS011;15392;48.912;8.380;2024-03-23T15:01:04;0.30;;;0.30;;
28086;SDS011;15392;48.912;8.380;2024-03-23T15:03:54;0.20;;;0.20;;
28086;SDS011;15392;48.912;8.380;2024-03-23T15:06:40;0.20;;;0.20;;
28086;SDS011;15392;48.912;8.380;2024-03-23T15:09:27;0.10;;;0.10;;
28086;SDS011;15392;48.912;8.380;2024-03-23T15:12:13;0.20;;;0.20;;
28086;SDS011;15392;48.912;8.380;2024-03-23T15:14:59;0.20;;;0.20;;
28086;SDS011;15392;48.912;8.380;2024-03-23T15:17:45;0.20;;;0.20;;
28086;SDS011;15392;48.912;8.380;2024-03-23T15:20:32;0.20;;;0.20;;
28086;SDS011;15392;48.912;8.380;2024-03-23T15:23:21;0.38;;;0.20;;
28086;SDS011;15392;48.912;8.380;2024-03-23T15:26:07;0.30;;;0.30;;
28086;SDS011;15392;48.912;8.380;2024-03-23T15:28:53;0.20;;;0.20;;
28086;SDS011;15392;48.912;8.380;2024-03-23T15:31:42;0.55;;;0.55;;
28086;SDS011;15392;48.912;8.380;2024-03-23T15:34:28;0.80;;;0.80;;
28086;SDS011;15392;48.912;8.380;2024-03-23T15:37:14;0.50;;;0.50;;
28086;SDS011;15392;48.912;8.380;2024-03-23T15:40:01;0.70;;;0.45;;
28086;SDS011;15392;48.912;8.380;2024-03-23T15:42:47;0.40;;;0.40;;
28086;SDS011;15392;48.912;8.380;2024-03-23T15:45:34;0.40;;;0.40;;
28086;SDS011;15392;48.912;8.380;2024-03-23T15:48:20;0.50;;;0.50;;
28086;SDS011;15392;48.912;8.380;2024-03-23T15:51:06;0.50;;;0.50;;
28086;SDS011;15392;48.912;8.380;2024-03-23T15:53:52;0.63;;;0.40;;
28086;SDS011;15392;48.912;8.380;2024-03-23T15:56:42;0.45;;;0.45;;
28086;SDS011;15392;48.912;8.380;2024-03-23T15:59:28;0.40;;;0.30;;
28086;SDS011;15392;48.912;8.380;2024-03-23T16:02:14;0.35;;;0.35;;
28086;SDS011;15392;48.912;8.380;2024-03-23T16:05:01;0.20;;;0.20;;
28086;SDS011;15392;48.912;8.380;2024-03-23T16:07:49;0.20;;;0.20;;
28086;SDS011;15392;48.912;8.380;2024-03-23T16:10:35;0.30;;;0.30;;
28086;SDS011;15392;48.912;8.380;2024-03-23T16:13:21;0.20;;;0.20;;
28086;SDS011;15392;48.912;8.380;2024-03-23T16:16:07;0.20;;;0.20;;
28086;SDS011;15392;48.912;8.380;2024-03-23T16:18:54;0.20;;;0.20;;
28086;SDS011;15392;48.912;8.380;2024-03-23T16:21:40;0.28;;;0.20;;
28086;SDS011;15392;48.912;8.380;2024-03-23T16:24:26;0.20;;;0.17;;
28086;SDS011;15392;48.912;8.380;2024-03-23T16:27:12;0.30;;;0.28;;
28086;SDS011;15392;48.912;8.380;2024-03-23T16:29:58;0.20;;;0.20;;
28086;SDS011;15392;48.912;8.380;2024-03-23T16:32:44;0.20;;;0.20;;
28086;SDS011;15392;48.912;8.380;2024-03-23T16:35:30;0.13;;;0.13;;
28086;SDS011;15392;48.912;8.380;2024-03-23T16:38:16;0.10;;;0.10;;
28086;SDS011;15392;48.912;8.380;2024-03-23T16:41:06;0.20;;;0.20;;
28086;SDS011;15392;48.912;8.380;2024-03-23T16:43:54;0.20;;;0.20;;
28086;SDS011;15392;48.912;8.380;2024-03-23T16:46:40;0.32;;;0.32;;
28086;SDS011;15392;48.912;8.380;2024-03-23T16:49:28;0.38;;;0.38;;
28086;SDS011;15392;48.912;8.380;2024-03-23T16:52:14;0.50;;;0.50;;
28086;SDS011;15392;48.912;8.380;2024-03-23T16:55:01;0.55;;;0.55;;
28086;SDS011;15392;48.912;8.380;2024-03-23T16:57:47;0.70;;;0.70;;
28086;SDS011;15392;48.912;8.380;2024-03-23T17:00:36;0.50;;;0.50;;
28086;SDS011;15392;48.912;8.380;2024-03-23T17:03:25;0.70;;;0.70;;
28086;SDS011;15392;48.912;8.380;2024-03-23T17:06:11;0.52;;;0.52;;
28086;SDS011;15392;48.912;8.380;2024-03-23T17:09:00;1.35;;;0.70;;
28086;SDS011;15392;48.912;8.380;2024-03-23T17:11:48;0.52;;;0.40;;
28086;SDS011;15392;48.912;8.380;2024-03-23T17:14:34;0.40;;;0.40;;
28086;SDS011;15392;48.912;8.380;2024-03-23T17:17:20;0.55;;;0.55;;
28086;SDS011;15392;48.912;8.380;2024-03-23T17:20:06;0.93;;;0.93;;
28086;SDS011;15392;48.912;8.380;2024-03-23T17:22:55;0.70;;;0.70;;
28086;SDS011;15392;48.912;8.380;2024-03-23T17:25:41;0.43;;;0.43;;
28086;SDS011;15392;48.912;8.380;2024-03-23T17:28:27;0.50;;;0.50;;
28086;SDS011;15392;48.912;8.380;2024-03-23T17:31:17;0.35;;;0.35;;
28086;SDS011;15392;48.912;8.380;2024-03-23T17:34:04;0.40;;;0.40;;
28086;SDS011;15392;48.912;8.380;2024-03-23T17:36:50;0.47;;;0.47;;
28086;SDS011;15392;48.912;8.380;2024-03-23T17:39:36;0.47;;;0.47;;
28086;SDS011;15392;48.912;8.380;2024-03-23T17:42:22;0.50;;;0.50;;
28086;SDS011;15392;48.912;8.380;2024-03-23T17:45:08;0.50;;;0.50;;
28086;SDS011;15392;48.912;8.380;2024-03-23T17:47:54;0.50;;;0.50;;